createdAt,value
2017-06-15T00:00:13.641Z,23.32
2017-06-15T00:00:54.122Z,23.27
2017-06-15T00:02:52.334Z,23.28
2017-06-15T00:03:32.805Z,23.02
2017-06-15T00:04:13.320Z,23.13
2017-06-15T00:04:53.833Z,23.1
2017-06-15T00:05:34.362Z,23.1
2017-06-15T00:06:14.855Z,23.07
2017-06-15T00:06:55.390Z,23.15
2017-06-15T00:07:35.944Z,23.15
2017-06-15T00:08:16.440Z,23.17
2017-06-15T00:08:56.954Z,23.09
2017-06-15T00:09:37.469Z,23.09
2017-06-15T00:10:18.065Z,23.04
2017-06-15T00:10:58.532Z,23.13
2017-06-15T00:11:39.036Z,23.13
2017-06-15T00:12:19.583Z,22.98
2017-06-15T00:13:00.096Z,23.01
2017-06-15T00:13:40.576Z,23.16
2017-06-15T00:15:38.761Z,23.07
2017-06-15T00:16:19.269Z,23.09
2017-06-15T00:16:59.770Z,23.12
2017-06-15T00:17:40.318Z,23.12
2017-06-15T00:18:20.811Z,23.12
2017-06-15T00:19:01.323Z,23.12
2017-06-15T00:19:41.821Z,22.97
2017-06-15T00:20:22.327Z,23.02
2017-06-15T00:21:02.873Z,22.95
2017-06-15T00:21:43.387Z,22.91
2017-06-15T00:22:23.914Z,22.97
2017-06-15T00:23:04.435Z,22.95
2017-06-15T00:23:44.961Z,23.01
2017-06-15T00:24:25.475Z,22.86
2017-06-15T00:25:06.068Z,22.97
2017-06-15T00:25:46.566Z,22.86
2017-06-15T00:26:27.080Z,22.83
2017-06-15T00:27:07.609Z,22.86
2017-06-15T00:27:48.134Z,22.86
2017-06-15T00:28:28.649Z,22.97
2017-06-15T00:29:09.163Z,22.95
2017-06-15T00:29:49.677Z,22.97
2017-06-15T00:31:42.779Z,22.95
2017-06-15T00:32:23.319Z,22.92
2017-06-15T00:33:03.871Z,22.85
2017-06-15T00:33:44.414Z,22.88
2017-06-15T00:34:24.961Z,22.94
2017-06-15T00:35:05.489Z,22.79
2017-06-15T00:35:46.092Z,22.94
2017-06-15T00:36:26.577Z,22.88
2017-06-15T00:37:07.082Z,22.83
2017-06-15T00:37:47.591Z,22.76
2017-06-15T00:38:28.101Z,22.82
2017-06-15T00:39:08.606Z,22.8
2017-06-15T00:39:49.282Z,22.85
2017-06-15T00:40:29.788Z,22.73
2017-06-15T00:41:10.297Z,22.67
2017-06-15T00:41:50.832Z,22.65
2017-06-15T00:42:31.335Z,22.67
2017-06-15T00:43:11.859Z,22.73
2017-06-15T00:43:52.344Z,22.61
2017-06-15T00:44:32.846Z,22.67
2017-06-15T00:45:13.359Z,22.49
2017-06-15T00:45:53.924Z,22.55
2017-06-15T00:46:34.535Z,22.42
2017-06-15T00:47:14.965Z,22.27
2017-06-15T00:49:28.275Z,22.3
2017-06-15T00:50:08.799Z,22.33
2017-06-15T00:50:49.308Z,22.4
2017-06-15T00:51:29.821Z,22.36
2017-06-15T00:52:10.341Z,22.54
2017-06-15T00:52:50.856Z,22.47
2017-06-15T00:53:31.356Z,22.55
2017-06-15T00:54:11.893Z,22.57
2017-06-15T00:54:52.432Z,22.54
2017-06-15T00:55:32.954Z,22.52
2017-06-15T00:56:13.488Z,22.55
2017-06-15T00:56:53.987Z,22.55
2017-06-15T00:57:34.492Z,22.49
2017-06-15T00:58:15.004Z,22.62
2017-06-15T00:58:55.522Z,22.55
2017-06-15T00:59:36.032Z,22.52
2017-06-15T01:00:16.506Z,22.47
2017-06-15T01:00:57.013Z,22.62
2017-06-15T01:01:37.564Z,22.49
2017-06-15T01:02:18.093Z,22.57
2017-06-15T01:02:58.613Z,22.47
2017-06-15T01:03:39.110Z,22.58
2017-06-15T01:04:19.653Z,22.55
2017-06-15T01:05:00.167Z,22.65
2017-06-15T01:05:40.675Z,22.57
2017-06-15T01:06:21.176Z,22.39
2017-06-15T01:07:01.695Z,22.31
2017-06-15T01:07:42.225Z,22.33
2017-06-15T01:08:22.722Z,22.25
2017-06-15T01:09:03.253Z,22.18
2017-06-15T01:09:43.773Z,22.14
2017-06-15T01:10:24.325Z,22.24
2017-06-15T01:11:04.846Z,22.27
2017-06-15T01:11:45.376Z,22.18
2017-06-15T01:12:25.870Z,22.1
2017-06-15T01:13:06.377Z,22.17
2017-06-15T01:13:46.873Z,22.22
2017-06-15T01:14:27.398Z,22.17
2017-06-15T01:15:07.940Z,22.28
2017-06-15T01:15:48.422Z,22.02
2017-06-15T01:16:28.952Z,21.99
2017-06-15T01:17:09.442Z,21.99
2017-06-15T01:17:49.956Z,22.03
2017-06-15T01:18:30.488Z,22.03
2017-06-15T01:19:11.003Z,21.99
2017-06-15T01:19:51.515Z,22.03
2017-06-15T01:20:32.040Z,22.06
2017-06-15T01:21:12.563Z,21.99
2017-06-15T01:21:53.084Z,21.84
2017-06-15T01:22:33.624Z,21.86
2017-06-15T01:23:14.129Z,21.98
2017-06-15T01:23:54.644Z,22.03
2017-06-15T01:24:35.163Z,21.91
2017-06-15T01:25:15.706Z,21.8
2017-06-15T01:25:56.194Z,21.8
2017-06-15T01:26:36.696Z,21.72
2017-06-15T01:27:17.208Z,21.65
2017-06-15T01:27:57.695Z,21.77
2017-06-15T01:28:38.245Z,21.59
2017-06-15T01:29:18.776Z,21.68
2017-06-15T01:29:59.381Z,21.74
2017-06-15T01:30:39.894Z,21.64
2017-06-15T01:32:38.078Z,21.56
2017-06-15T01:33:18.607Z,21.53
2017-06-15T01:33:59.105Z,21.64
2017-06-15T01:34:39.622Z,21.5
2017-06-15T01:35:20.124Z,21.58
2017-06-15T01:36:00.642Z,21.53
2017-06-15T01:36:41.161Z,21.64
2017-06-15T01:37:21.675Z,21.79
2017-06-15T01:38:02.202Z,21.8
2017-06-15T01:38:42.728Z,21.75
2017-06-15T01:39:23.215Z,21.68
2017-06-15T01:40:04.413Z,21.61
2017-06-15T01:40:44.422Z,21.71
2017-06-15T01:41:25.022Z,21.82
2017-06-15T01:42:05.624Z,21.8
2017-06-15T01:42:46.037Z,21.8
2017-06-15T01:43:28.478Z,21.8
2017-06-15T01:45:29.650Z,21.68
2017-06-15T01:46:10.127Z,21.67
2017-06-15T01:46:51.037Z,21.8
2017-06-15T01:48:39.424Z,21.61
2017-06-15T01:49:20.053Z,21.62
2017-06-15T01:50:00.906Z,21.69
2017-06-15T01:50:41.397Z,21.74
2017-06-15T01:51:21.913Z,21.61
2017-06-15T01:52:03.837Z,21.75
2017-06-15T01:52:46.998Z,21.59
2017-06-15T01:53:27.960Z,21.67
2017-06-15T01:54:08.306Z,21.79
2017-06-15T01:54:49.884Z,21.77
2017-06-15T01:56:27.872Z,21.75
2017-06-15T01:57:08.379Z,21.75
2017-06-15T01:57:48.892Z,21.86
2017-06-15T01:58:29.395Z,21.67
2017-06-15T01:59:09.968Z,21.61
2017-06-15T01:59:50.467Z,21.77
2017-06-15T02:00:30.977Z,21.74
2017-06-15T02:01:11.491Z,21.72
2017-06-15T02:01:52.004Z,21.67
2017-06-15T02:02:32.567Z,21.71
2017-06-15T02:03:13.093Z,21.72
2017-06-15T02:03:53.585Z,21.69
2017-06-15T02:04:34.089Z,21.67
2017-06-15T02:05:14.598Z,21.71
2017-06-15T02:05:55.144Z,21.71
2017-06-15T02:06:35.774Z,21.83
2017-06-15T02:07:16.280Z,21.84
2017-06-15T02:07:56.793Z,21.82
2017-06-15T02:10:10.068Z,21.96
2017-06-15T02:10:50.577Z,21.9
2017-06-15T02:11:31.075Z,21.91
2017-06-15T02:12:11.610Z,21.83
2017-06-15T02:12:52.181Z,21.86
2017-06-15T02:13:32.690Z,21.71
2017-06-15T02:14:13.211Z,21.67
2017-06-15T02:14:53.729Z,21.77
2017-06-15T02:15:34.258Z,21.9
2017-06-15T02:16:14.754Z,21.74
2017-06-15T02:16:55.321Z,21.86
2017-06-15T02:17:35.844Z,21.84
2017-06-15T02:18:16.370Z,21.79
2017-06-15T02:18:56.902Z,21.88
2017-06-15T02:19:37.419Z,21.79
2017-06-15T02:20:17.959Z,21.86
2017-06-15T02:20:58.469Z,21.61
2017-06-15T02:21:38.992Z,21.49
2017-06-15T02:22:19.545Z,21.68
2017-06-15T02:23:00.073Z,21.62
2017-06-15T02:23:40.598Z,21.62
2017-06-15T02:24:21.124Z,21.65
2017-06-15T02:25:01.638Z,21.65
2017-06-15T02:25:42.150Z,21.68
2017-06-15T02:26:22.651Z,21.8
2017-06-15T02:27:03.183Z,21.71
2017-06-15T02:27:43.684Z,21.74
2017-06-15T02:28:24.208Z,21.79
2017-06-15T02:29:04.730Z,21.61
2017-06-15T02:29:45.245Z,21.68
2017-06-15T02:30:25.786Z,21.71
2017-06-15T02:31:06.291Z,21.67
2017-06-15T02:31:46.825Z,21.74
2017-06-15T02:32:27.345Z,21.72
2017-06-15T02:33:07.890Z,21.82
2017-06-15T02:33:48.420Z,21.69
2017-06-15T02:34:28.930Z,21.69
2017-06-15T02:35:09.465Z,21.77
2017-06-15T02:35:49.982Z,21.69
2017-06-15T02:36:30.540Z,21.77
2017-06-15T02:37:11.067Z,21.77
2017-06-15T02:37:51.573Z,21.64
2017-06-15T02:38:32.081Z,21.65
2017-06-15T02:39:12.629Z,21.59
2017-06-15T02:39:53.125Z,21.61
2017-06-15T02:40:33.635Z,21.71
2017-06-15T02:41:14.198Z,21.72
2017-06-15T02:41:54.655Z,21.65
2017-06-15T02:42:35.356Z,21.65
2017-06-15T02:43:15.859Z,21.65
2017-06-15T02:43:56.362Z,21.64
2017-06-15T02:44:36.897Z,21.54
2017-06-15T02:45:17.391Z,21.32
2017-06-15T02:45:57.905Z,21.22
2017-06-15T02:46:38.422Z,21.09
2017-06-15T02:47:18.944Z,21.22
2017-06-15T02:47:59.479Z,21.34
2017-06-15T02:48:39.941Z,21.28
2017-06-15T02:49:20.435Z,21.21
2017-06-15T02:50:00.947Z,21.16
2017-06-15T02:50:41.479Z,21.14
2017-06-15T02:51:21.963Z,21.19
2017-06-15T02:52:02.449Z,21.21
2017-06-15T02:52:42.936Z,21.27
2017-06-15T02:53:23.452Z,21.32
2017-06-15T02:54:03.956Z,21.31
2017-06-15T02:54:44.464Z,21.27
2017-06-15T02:55:24.978Z,21.37
2017-06-15T02:56:05.486Z,21.34
2017-06-15T02:56:46.045Z,21.32
2017-06-15T02:57:26.572Z,21.28
2017-06-15T02:58:07.081Z,21.25
2017-06-15T02:58:47.592Z,21.14
2017-06-15T02:59:28.162Z,21.1
2017-06-15T03:00:08.653Z,21.12
2017-06-15T03:00:49.183Z,21.31
2017-06-15T03:01:29.679Z,21.27
2017-06-15T03:02:10.213Z,21.34
2017-06-15T03:02:50.724Z,21.28
2017-06-15T03:03:31.262Z,21.27
2017-06-15T03:04:11.761Z,21.17
2017-06-15T03:04:52.273Z,21.1
2017-06-15T03:05:32.778Z,20.99
2017-06-15T03:06:13.259Z,21.07
2017-06-15T03:06:53.770Z,21.12
2017-06-15T03:07:34.291Z,21.1
2017-06-15T03:08:14.805Z,21.16
2017-06-15T03:08:55.317Z,21.14
2017-06-15T03:09:35.832Z,21.19
2017-06-15T03:10:16.371Z,21.28
2017-06-15T03:10:56.895Z,21.25
2017-06-15T03:11:37.425Z,21.29
2017-06-15T03:12:17.956Z,21.29
2017-06-15T03:12:58.428Z,21.38
2017-06-15T03:13:38.927Z,21.35
2017-06-15T03:14:19.430Z,21.4
2017-06-15T03:14:59.952Z,21.44
2017-06-15T03:15:40.481Z,21.29
2017-06-15T03:16:20.965Z,21.25
2017-06-15T03:17:01.512Z,21.38
2017-06-15T03:17:42.021Z,21.31
2017-06-15T03:18:22.551Z,21.29
2017-06-15T03:19:03.038Z,21.17
2017-06-15T03:19:43.534Z,21.27
2017-06-15T03:20:24.067Z,21.31
2017-06-15T03:21:04.597Z,21.43
2017-06-15T03:21:45.116Z,21.43
2017-06-15T03:22:25.652Z,21.56
2017-06-15T03:24:38.947Z,21.5
2017-06-15T03:25:19.468Z,21.65
2017-06-15T03:26:00.020Z,21.62
2017-06-15T03:26:40.764Z,21.49
2017-06-15T03:27:21.310Z,21.49
2017-06-15T03:28:01.805Z,21.46
2017-06-15T03:28:42.332Z,21.58
2017-06-15T03:29:22.837Z,21.61
2017-06-15T03:30:03.348Z,21.58
2017-06-15T03:30:43.861Z,21.61
2017-06-15T03:32:42.079Z,21.58
2017-06-15T03:33:22.609Z,21.61
2017-06-15T03:34:03.119Z,21.74
2017-06-15T03:34:43.907Z,21.75
2017-06-15T03:35:24.422Z,21.72
2017-06-15T03:36:04.927Z,21.72
2017-06-15T03:36:45.429Z,21.74
2017-06-15T03:37:25.950Z,21.8
2017-06-15T03:38:06.478Z,21.74
2017-06-15T03:38:46.967Z,21.74
2017-06-15T03:39:27.479Z,21.82
2017-06-15T03:41:05.351Z,21.77
2017-06-15T03:41:45.895Z,21.84
2017-06-15T03:42:26.386Z,21.8
2017-06-15T03:43:06.893Z,21.79
2017-06-15T03:43:47.387Z,21.74
2017-06-15T03:44:27.899Z,21.83
2017-06-15T03:45:08.411Z,21.79
2017-06-15T03:45:49.023Z,21.84
2017-06-15T03:46:29.544Z,21.88
2017-06-15T03:47:10.060Z,21.8
2017-06-15T03:47:50.563Z,21.88
2017-06-15T03:48:31.069Z,21.91
2017-06-15T03:50:25.203Z,21.84
2017-06-15T03:51:05.660Z,21.92
2017-06-15T03:51:46.173Z,21.83
2017-06-15T03:52:26.667Z,21.65
2017-06-15T03:53:07.176Z,21.74
2017-06-15T03:53:47.712Z,21.77
2017-06-15T03:54:28.234Z,21.64
2017-06-15T03:55:08.877Z,21.62
2017-06-15T03:55:49.410Z,21.67
2017-06-15T03:56:29.894Z,21.67
2017-06-15T03:57:10.405Z,21.65
2017-06-15T03:57:50.921Z,21.75
2017-06-15T03:58:31.443Z,21.8
2017-06-15T03:59:11.964Z,21.79
2017-06-15T03:59:52.487Z,21.82
2017-06-15T04:00:33.034Z,21.84
2017-06-15T04:01:13.537Z,21.88
2017-06-15T04:01:54.049Z,21.86
2017-06-15T04:02:34.543Z,21.94
2017-06-15T04:03:15.051Z,21.96
2017-06-15T04:03:55.593Z,21.98
2017-06-15T04:04:36.102Z,21.9
2017-06-15T04:05:16.619Z,21.94
2017-06-15T04:05:57.116Z,21.98
2017-06-15T04:06:37.646Z,22.24
2017-06-15T04:07:18.179Z,22.35
2017-06-15T04:07:58.734Z,22.31
2017-06-15T04:08:39.244Z,22.31
2017-06-15T04:09:19.739Z,22.27
2017-06-15T04:10:00.238Z,22.35
2017-06-15T04:10:40.754Z,22.3
2017-06-15T04:11:21.272Z,22.27
2017-06-15T04:12:01.779Z,22.31
2017-06-15T04:12:42.314Z,22.28
2017-06-15T04:13:22.848Z,22.31
2017-06-15T04:14:03.372Z,22.4
2017-06-15T04:14:43.892Z,22.42
2017-06-15T04:15:24.410Z,22.28
2017-06-15T04:16:04.926Z,22.3
2017-06-15T04:16:45.467Z,22.36
2017-06-15T04:18:23.365Z,22.31
2017-06-15T04:19:03.854Z,22.36
2017-06-15T04:19:44.393Z,22.43
2017-06-15T04:20:24.938Z,22.51
2017-06-15T04:21:05.460Z,22.4
2017-06-15T04:21:46.012Z,22.49
2017-06-15T04:22:26.556Z,22.52
2017-06-15T04:23:07.065Z,22.54
2017-06-15T04:23:47.596Z,22.51
2017-06-15T04:24:28.154Z,22.54
2017-06-15T04:25:08.662Z,22.47
2017-06-15T04:25:49.179Z,22.58
2017-06-15T04:26:29.702Z,22.61
2017-06-15T04:27:10.231Z,22.68
2017-06-15T04:27:50.732Z,22.67
2017-06-15T04:28:31.293Z,22.6
2017-06-15T04:29:11.769Z,22.6
2017-06-15T04:29:52.296Z,22.68
2017-06-15T04:30:32.793Z,22.67
2017-06-15T04:31:13.291Z,22.68
2017-06-15T04:31:53.795Z,22.73
2017-06-15T04:32:34.350Z,22.77
2017-06-15T04:33:14.878Z,22.86
2017-06-15T04:33:55.401Z,22.95
2017-06-15T04:34:35.953Z,22.86
2017-06-15T04:35:16.450Z,22.83
2017-06-15T04:37:04.454Z,22.82
2017-06-15T04:37:45.063Z,23.04
2017-06-15T04:38:25.630Z,23
2017-06-15T04:39:06.131Z,23.13
2017-06-15T04:39:46.646Z,23.13
2017-06-15T04:40:27.161Z,23.13
2017-06-15T04:41:07.681Z,23.25
2017-06-15T04:41:48.181Z,23.48
2017-06-15T04:42:28.682Z,24.05
2017-06-15T04:43:09.212Z,24.62
2017-06-15T04:43:49.721Z,25.18
2017-06-15T04:44:30.248Z,25.36
2017-06-15T04:45:10.746Z,25.5
2017-06-15T04:46:48.629Z,24.9
2017-06-15T04:47:29.142Z,24.61
2017-06-15T04:48:09.695Z,24.43
2017-06-15T04:48:50.207Z,24.32
2017-06-15T04:49:30.746Z,24.16
2017-06-15T04:50:11.233Z,24.05
2017-06-15T04:50:51.750Z,23.87
2017-06-15T04:51:32.269Z,23.84
2017-06-15T04:52:12.776Z,23.73
2017-06-15T04:52:53.287Z,23.69
2017-06-15T04:53:33.802Z,23.55
2017-06-15T04:54:14.324Z,23.63
2017-06-15T04:54:54.844Z,23.7
2017-06-15T04:55:35.383Z,23.78
2017-06-15T04:56:15.897Z,24.08
2017-06-15T04:56:56.394Z,24.05
2017-06-15T04:57:36.939Z,23.9
2017-06-15T04:58:17.479Z,23.8
2017-06-15T05:00:30.788Z,23.73
2017-06-15T05:01:11.276Z,23.72
2017-06-15T05:01:51.799Z,23.4
2017-06-15T05:02:32.553Z,23.35
2017-06-15T05:03:13.076Z,23.32
2017-06-15T05:05:01.018Z,23.5
2017-06-15T05:05:41.552Z,23.5
2017-06-15T05:06:22.672Z,23.43
2017-06-15T05:07:03.424Z,23.51
2017-06-15T05:07:43.992Z,23.61
2017-06-15T05:09:37.381Z,23.66
2017-06-15T05:10:17.891Z,23.54
2017-06-15T05:10:58.406Z,23.57
2017-06-15T05:11:38.927Z,23.63
2017-06-15T05:12:19.446Z,23.54
2017-06-15T05:12:59.957Z,23.55
2017-06-15T05:13:40.465Z,23.55
2017-06-15T05:14:20.951Z,23.61
2017-06-15T05:15:01.518Z,23.58
2017-06-15T05:15:42.032Z,23.66
2017-06-15T05:16:22.529Z,23.84
2017-06-15T05:17:03.037Z,23.94
2017-06-15T05:17:43.579Z,24.08
2017-06-15T05:18:24.085Z,24.06
2017-06-15T05:19:04.638Z,23.87
2017-06-15T05:19:45.289Z,24.05
2017-06-15T05:20:25.828Z,24.05
2017-06-15T05:21:06.337Z,24.05
2017-06-15T05:21:46.859Z,24.08
2017-06-15T05:22:27.394Z,24.13
2017-06-15T05:23:07.916Z,24.2
2017-06-15T05:23:48.444Z,24.28
2017-06-15T05:24:28.944Z,24.37
2017-06-15T05:25:09.451Z,24.49
2017-06-15T05:25:49.962Z,24.5
2017-06-15T05:26:30.489Z,24.55
2017-06-15T05:27:11.021Z,24.68
2017-06-15T05:27:51.544Z,24.71
2017-06-15T05:28:32.043Z,24.71
2017-06-15T05:29:12.570Z,24.64
2017-06-15T05:29:53.069Z,24.58
2017-06-15T05:30:33.560Z,24.43
2017-06-15T05:31:14.073Z,24.47
2017-06-15T05:31:54.589Z,24.47
2017-06-15T05:32:35.132Z,24.4
2017-06-15T05:33:15.631Z,24.47
2017-06-15T05:33:56.153Z,24.46
2017-06-15T05:34:36.656Z,24.43
2017-06-15T05:35:17.178Z,24.42
2017-06-15T05:38:37.855Z,24.34
2017-06-15T05:39:18.396Z,24.34
2017-06-15T05:39:58.885Z,24.37
2017-06-15T05:41:51.952Z,24.27
2017-06-15T05:42:32.478Z,24.25
2017-06-15T05:43:13.003Z,24.39
2017-06-15T05:43:53.619Z,24.3
2017-06-15T05:44:34.175Z,24.27
2017-06-15T05:45:14.698Z,24.1
2017-06-15T05:45:55.230Z,24.27
2017-06-15T05:46:35.851Z,24.31
2017-06-15T05:47:16.279Z,24.27
2017-06-15T05:49:14.514Z,24.42
2017-06-15T05:49:55.091Z,24.32
2017-06-15T05:50:35.587Z,24.39
2017-06-15T05:51:16.146Z,24.35
2017-06-15T05:51:56.710Z,24.46
2017-06-15T05:52:37.218Z,24.55
2017-06-15T05:54:25.428Z,24.65
2017-06-15T05:55:05.949Z,24.87
2017-06-15T05:55:46.453Z,25.14
2017-06-15T05:56:26.972Z,25.91
2017-06-15T05:58:20.136Z,28.36
2017-06-15T05:59:00.629Z,28.83
2017-06-15T05:59:41.153Z,29.48
2017-06-15T06:00:21.669Z,29.79
2017-06-15T06:01:02.239Z,29.85
2017-06-15T06:01:42.790Z,30.1
2017-06-15T06:02:23.337Z,30
2017-06-15T06:03:03.818Z,29.95
2017-06-15T06:03:44.322Z,29.92
2017-06-15T06:04:24.833Z,29.83
2017-06-15T06:05:05.350Z,29.78
2017-06-15T06:05:45.872Z,29.74
2017-06-15T06:06:26.363Z,29.57
2017-06-15T06:07:06.876Z,29.31
2017-06-15T06:07:47.387Z,29.11
2017-06-15T06:08:27.927Z,29.26
2017-06-15T06:09:08.432Z,29.27
2017-06-15T06:09:48.954Z,29.27
2017-06-15T06:10:29.470Z,29.12
2017-06-15T06:11:09.987Z,28.98
2017-06-15T06:11:50.516Z,28.95
2017-06-15T06:12:31.063Z,29.09
2017-06-15T06:13:11.598Z,29.05
2017-06-15T06:13:52.091Z,28.89
2017-06-15T06:14:32.598Z,28.93
2017-06-15T06:16:20.608Z,28.73
2017-06-15T06:17:01.130Z,28.78
2017-06-15T06:17:41.639Z,28.86
2017-06-15T06:18:22.159Z,28.86
2017-06-15T06:19:02.680Z,28.96
2017-06-15T06:19:43.188Z,29.05
2017-06-15T06:20:23.734Z,29.02
2017-06-15T06:22:16.871Z,29.12
2017-06-15T06:22:57.379Z,29.28
2017-06-15T06:23:37.907Z,29.39
2017-06-15T06:24:18.419Z,29.26
2017-06-15T06:24:59.056Z,29.21
2017-06-15T06:25:39.477Z,29.14
2017-06-15T06:26:20.002Z,29.12
2017-06-15T06:28:33.297Z,29.05
2017-06-15T06:29:13.795Z,28.95
2017-06-15T06:29:54.365Z,29.16
2017-06-15T06:30:34.902Z,29.16
2017-06-15T06:31:15.454Z,29.27
2017-06-15T06:31:55.957Z,29.34
2017-06-15T06:32:36.458Z,29.28
2017-06-15T06:33:16.998Z,29.3
2017-06-15T06:33:57.569Z,29.55
2017-06-15T06:34:38.178Z,29.3
2017-06-15T06:35:18.770Z,29.18
2017-06-15T06:35:59.628Z,29.3
2017-06-15T06:36:40.257Z,29.27
2017-06-15T06:38:34.463Z,29.3
2017-06-15T06:39:15.066Z,29.28
2017-06-15T06:39:56.229Z,29.41
2017-06-15T06:40:36.760Z,29.14
2017-06-15T06:41:17.266Z,29.15
2017-06-15T06:41:57.864Z,29.05
2017-06-15T06:42:38.640Z,29.16
2017-06-15T06:43:19.258Z,29.18
2017-06-15T06:43:59.758Z,29.24
2017-06-15T06:44:40.306Z,29.27
2017-06-15T06:45:20.786Z,29.37
2017-06-15T06:46:01.439Z,29.36
2017-06-15T06:46:42.484Z,29.39
2017-06-15T06:47:23.320Z,29.52
2017-06-15T06:48:03.775Z,29.37
2017-06-15T06:48:44.825Z,29.27
2017-06-15T06:49:25.332Z,29.42
2017-06-15T06:50:05.836Z,29.12
2017-06-15T06:50:46.347Z,29.3
2017-06-15T06:51:26.959Z,29.26
2017-06-15T06:52:07.559Z,28.9
2017-06-15T06:52:48.090Z,28.92
2017-06-15T06:53:28.851Z,28.7
2017-06-15T06:54:09.287Z,28.76
2017-06-15T06:54:49.781Z,28.76
2017-06-15T06:55:30.335Z,28.83
2017-06-15T06:56:10.829Z,28.92
2017-06-15T06:56:51.487Z,28.85
2017-06-15T06:57:32.895Z,28.92
2017-06-15T06:58:13.779Z,29.06
2017-06-15T06:58:54.260Z,29.06
2017-06-15T06:59:34.760Z,29.06
2017-06-15T07:00:15.248Z,29.02
2017-06-15T07:00:55.727Z,29.06
2017-06-15T07:01:36.275Z,28.92
2017-06-15T07:02:16.820Z,29.04
2017-06-15T07:02:57.352Z,29.04
2017-06-15T07:03:38.057Z,29.08
2017-06-15T07:04:18.679Z,29.08
2017-06-15T07:04:59.334Z,29.15
2017-06-15T07:05:39.906Z,29.04
2017-06-15T07:06:20.591Z,29.05
2017-06-15T07:07:01.883Z,29.06
2017-06-15T07:07:42.404Z,28.93
2017-06-15T07:08:23.113Z,28.95
2017-06-15T07:09:03.466Z,28.86
2017-06-15T07:09:49.210Z,28.88
2017-06-15T07:10:29.674Z,28.9
2017-06-15T07:11:10.102Z,28.96
2017-06-15T07:11:50.625Z,29.08
2017-06-15T07:12:31.135Z,29.09
2017-06-15T07:13:11.765Z,29.11
2017-06-15T07:13:52.159Z,29.06
2017-06-15T07:14:32.696Z,28.98
2017-06-15T07:15:13.282Z,28.96
2017-06-15T07:15:53.893Z,28.96
2017-06-15T07:16:34.462Z,28.85
2017-06-15T07:17:14.962Z,29.02
2017-06-15T07:17:55.533Z,28.93
2017-06-15T07:18:36.018Z,28.92
2017-06-15T07:19:16.697Z,28.95
2017-06-15T07:19:57.336Z,29.02
2017-06-15T07:20:37.829Z,29.02
2017-06-15T07:21:18.381Z,29.08
2017-06-15T07:21:58.883Z,29.14
2017-06-15T07:22:39.329Z,29.12
2017-06-15T07:23:19.934Z,29.02
2017-06-15T07:24:00.913Z,28.83
2017-06-15T07:24:41.673Z,28.64
2017-06-15T07:25:22.154Z,28.64
2017-06-15T07:26:03.673Z,28.48
2017-06-15T07:26:44.455Z,28.56
2017-06-15T07:27:24.870Z,28.48
2017-06-15T07:28:05.743Z,28.62
2017-06-15T07:28:46.721Z,28.71
2017-06-15T07:29:27.230Z,28.74
2017-06-15T07:30:07.781Z,28.78
2017-06-15T07:30:48.219Z,28.68
2017-06-15T07:31:28.683Z,28.8
2017-06-15T07:32:09.179Z,28.76
2017-06-15T07:32:49.696Z,28.81
2017-06-15T07:33:30.142Z,28.8
2017-06-15T07:34:10.697Z,28.74
2017-06-15T07:34:51.143Z,28.64
2017-06-15T07:35:31.643Z,28.58
2017-06-15T07:36:12.153Z,28.46
2017-06-15T07:36:52.666Z,28.39
2017-06-15T07:37:33.184Z,28.62
2017-06-15T07:38:13.716Z,28.62
2017-06-15T07:38:54.234Z,28.66
2017-06-15T07:39:34.728Z,28.7
2017-06-15T07:40:15.264Z,28.74
2017-06-15T07:40:55.797Z,28.78
2017-06-15T07:41:36.279Z,28.74
2017-06-15T07:42:16.784Z,28.78
2017-06-15T07:42:57.300Z,28.55
2017-06-15T07:43:37.773Z,28.67
2017-06-15T07:44:18.277Z,28.66
2017-06-15T07:44:58.797Z,28.67
2017-06-15T07:45:39.401Z,28.74
2017-06-15T07:46:19.962Z,28.62
2017-06-15T07:47:00.464Z,28.78
2017-06-15T07:47:40.937Z,28.89
2017-06-15T07:48:21.458Z,28.9
2017-06-15T07:49:01.968Z,28.81
2017-06-15T07:49:42.455Z,28.77
2017-06-15T07:50:23.024Z,28.9
2017-06-15T07:51:03.491Z,28.93
2017-06-15T07:51:43.996Z,28.96
2017-06-15T07:52:24.490Z,28.89
2017-06-15T07:53:04.997Z,28.88
2017-06-15T07:53:45.487Z,28.92
2017-06-15T07:54:26.011Z,28.93
2017-06-15T07:55:06.542Z,28.92
2017-06-15T07:55:47.088Z,28.9
2017-06-15T07:56:27.503Z,28.92
2017-06-15T07:57:08.340Z,28.92
2017-06-15T07:57:48.810Z,28.81
2017-06-15T07:58:29.328Z,28.86
2017-06-15T07:59:09.811Z,28.81
2017-06-15T07:59:50.341Z,28.83
2017-06-15T08:00:30.829Z,28.89
2017-06-15T08:01:11.330Z,28.95
2017-06-15T08:01:51.884Z,28.92
2017-06-15T08:02:32.371Z,29
2017-06-15T08:03:12.897Z,28.89
2017-06-15T08:03:53.363Z,28.93
2017-06-15T08:04:33.892Z,28.92
2017-06-15T08:05:14.422Z,28.9
2017-06-15T08:05:54.932Z,29.02
2017-06-15T08:06:35.535Z,29.06
2017-06-15T08:07:16.386Z,29.08
2017-06-15T08:07:56.917Z,29.08
2017-06-15T08:08:37.439Z,29.08
2017-06-15T08:09:17.989Z,29.16
2017-06-15T08:09:58.559Z,29.12
2017-06-15T08:10:39.004Z,29.05
2017-06-15T08:11:19.498Z,29.08
2017-06-15T08:11:59.993Z,29.11
2017-06-15T08:12:40.530Z,29.11
2017-06-15T08:13:21.013Z,29.12
2017-06-15T08:14:01.515Z,29.16
2017-06-15T08:14:41.987Z,29.06
2017-06-15T08:15:22.501Z,29
2017-06-15T08:16:02.985Z,28.88
2017-06-15T08:16:43.489Z,28.86
2017-06-15T08:17:24.029Z,28.96
2017-06-15T08:18:05.023Z,29
2017-06-15T08:18:45.313Z,28.95
2017-06-15T08:19:25.804Z,29.04
2017-06-15T08:20:06.403Z,29.18
2017-06-15T08:20:46.830Z,29.11
2017-06-15T08:21:27.342Z,28.96
2017-06-15T08:22:07.878Z,29.08
2017-06-15T08:22:48.418Z,28.98
2017-06-15T08:23:28.876Z,28.95
2017-06-15T08:24:09.371Z,28.86
2017-06-15T08:24:49.950Z,28.93
2017-06-15T08:25:30.368Z,28.9
2017-06-15T08:26:10.901Z,28.8
2017-06-15T08:26:51.383Z,28.88
2017-06-15T08:27:32.006Z,28.85
2017-06-15T08:28:12.460Z,28.7
2017-06-15T08:28:53.054Z,28.76
2017-06-15T08:29:33.457Z,28.71
2017-06-15T08:30:13.968Z,28.67
2017-06-15T08:30:54.464Z,28.64
2017-06-15T08:32:55.230Z,28.41
2017-06-15T08:33:35.750Z,28.44
2017-06-15T08:34:16.247Z,28.46
2017-06-15T08:34:56.779Z,28.41
2017-06-15T08:35:37.301Z,28.29
2017-06-15T08:36:17.767Z,28.3
2017-06-15T08:36:58.405Z,28.33
2017-06-15T08:37:38.881Z,28.33
2017-06-15T08:38:19.408Z,28.3
2017-06-15T08:39:00.222Z,28.27
2017-06-15T08:39:41.194Z,28.21
2017-06-15T08:40:23.474Z,28.06
2017-06-15T08:41:03.888Z,28.02
2017-06-15T08:41:44.944Z,27.94
2017-06-15T08:42:28.358Z,27.87
2017-06-15T08:43:09.178Z,27.88
2017-06-15T08:43:50.210Z,27.97
2017-06-15T08:44:30.720Z,27.88
2017-06-15T08:45:12.566Z,27.82
2017-06-15T08:45:53.481Z,27.85
2017-06-15T08:46:34.133Z,27.78
2017-06-15T08:47:14.747Z,27.69
2017-06-15T08:47:55.314Z,27.67
2017-06-15T08:48:35.849Z,27.66
2017-06-15T08:49:16.389Z,27.67
2017-06-15T08:49:56.912Z,27.72
2017-06-15T08:50:37.493Z,27.7
2017-06-15T08:51:18.007Z,27.74
2017-06-15T08:51:58.650Z,27.81
2017-06-15T08:52:39.172Z,27.69
2017-06-15T08:53:19.673Z,27.72
2017-06-15T08:54:00.529Z,27.75
2017-06-15T08:54:40.867Z,27.84
2017-06-15T08:55:21.535Z,27.96
2017-06-15T08:56:01.932Z,27.94
2017-06-15T08:56:42.525Z,28.02
2017-06-15T08:57:23.033Z,27.99
2017-06-15T08:58:03.510Z,28.03
2017-06-15T08:58:44.381Z,27.96
2017-06-15T08:59:24.924Z,28
2017-06-15T09:00:05.765Z,27.97
2017-06-15T09:00:46.267Z,27.94
2017-06-15T09:01:26.825Z,27.85
2017-06-15T09:02:07.284Z,27.78
2017-06-15T09:02:47.792Z,27.79
2017-06-15T09:03:28.315Z,27.81
2017-06-15T09:04:08.779Z,27.78
2017-06-15T09:04:49.280Z,27.78
2017-06-15T09:05:29.785Z,27.78
2017-06-15T09:06:10.255Z,27.82
2017-06-15T09:06:50.859Z,27.87
2017-06-15T09:07:31.342Z,27.81
2017-06-15T09:08:11.838Z,27.77
2017-06-15T09:08:52.383Z,27.75
2017-06-15T09:09:32.843Z,27.74
2017-06-15T09:10:13.418Z,27.74
2017-06-15T09:10:53.861Z,27.7
2017-06-15T09:11:34.364Z,27.77
2017-06-15T09:12:14.867Z,27.7
2017-06-15T09:12:55.370Z,27.75
2017-06-15T09:13:35.891Z,27.74
2017-06-15T09:14:16.662Z,27.75
2017-06-15T09:14:57.156Z,27.85
2017-06-15T09:15:37.717Z,27.77
2017-06-15T09:16:18.243Z,27.88
2017-06-15T09:16:58.730Z,27.92
2017-06-15T09:17:39.318Z,27.75
2017-06-15T09:18:22.382Z,27.84
2017-06-15T09:19:02.884Z,27.81
2017-06-15T09:19:43.476Z,27.81
2017-06-15T09:20:24.135Z,27.88
2017-06-15T09:21:04.686Z,27.9
2017-06-15T09:21:45.230Z,27.92